El-Haddadi, Egypt

57°F / 14°C
Scattered Clouds
Humidity: 77%
Dew Point: 50°F / 10°C
Wind: SSW at 5 mph / 7 km/h
Pressure: 30.09 in / 1019 hPa (Rising)
Visibility: 3.7 miles / 6.0 kilometers
Clouds: Scattered Clouds (SCT) : 2000 ft / 609 m
Yesterday's Maximum: 64°F / 18°C
Yesterday's Minimum: 50°F / 10°C approx.
Yesterday's Heating Degree Days: 8 approx.
UV: 3 out of 16
Sunrise:6:30 AM EET
Sunset:5:50 PM EET
Moon Rise:10:10 PM EET
Moon Set:9:12 AM EET
Moon Phase Waning Gibbous
NOAA Weather Radio
No local feed.
METAR HEAX 230700Z 20004KT 6000 SCT020 14/10 Q1019 NOSIG
As of: 9:00 AM EET on February 23, 2019
Observed at: Alexandria, Egypt

View Station's History

Local Satellite

Current Satellite Forecast
Region Default Local
No Yes

View Full Screen WunderMap

Forecast

Current Satellite Forecast

Features

Weather Apps

WunderRadio

Weather Underground Apps
Check out our wide variety of mobile and setup applications.

Weather Underground Applications

Top of Page

© Copyright 2019
The Weather Company, LLC